Time,TemperatureF,DewpointF,PressureIn,WindDirection,WindDirectionDegrees,WindSpeedMPH,WindSpeedGustMPH,Humidity,HourlyPrecipIn,Conditions,Clouds,dailyrainin,SoftwareType,DateUTC
2013-04-22 00:01:00,50.1,30.1,30.37,East,90,3.5,3.5,46,0.00,CLR,,0.00,WeatherDisplay:10.37,2013-04-22 04:01:00,
2013-04-22 00:02:00,50.1,30.1,30.37,ENE,75,4.0,4.0,46,0.00,CLR,,0.00,WeatherDisplay:10.37,2013-04-22 04:02:00,
2013-04-22 00:04:00,50.1,30.1,30.36,ENE,76,2.0,2.0,46,0.00,CLR,,0.00,WeatherDisplay:10.37,2013-04-22 04:04:00,
2013-04-22 00:09:00,50.1,30.1,30.36,NE,37,3.5,3.5,46,0.00,CLR,,0.00,WeatherDisplay:10.37,2013-04-22 04:09:00,
2013-04-22 00:13:00,50.1,30.1,30.36,NE,36,2.3,2.3,46,0.00,CLR,,0.00,WeatherDisplay:10.37,2013-04-22 04:13:00,
2013-04-22 00:18:00,50.0,30.0,30.36,SE,133,6.0,6.0,46,0.00,CLR,,0.00,WeatherDisplay:10.37,2013-04-22 04:18:00,
2013-04-22 00:23:00,49.9,29.9,30.36,ESE,120,1.1,1.1,46,0.00,CLR,,0.00,WeatherDisplay:10.37,2013-04-22 04:23:00,
2013-04-22 00:28:00,49.8,29.8,30.36,East,85,2.0,2.0,46,0.00,CLR,,0.00,WeatherDisplay:10.37,2013-04-22 04:28:00,
2013-04-22 00:33:00,49.7,29.7,30.36,East,86,2.3,2.3,46,0.00,CLR,,0.00,WeatherDisplay:10.37,2013-04-22 04:33:00,
2013-04-22 00:38:00,49.7,29.7,30.36,ESE,103,4.0,4.0,46,0.00,CLR,,0.00,WeatherDisplay:10.37,2013-04-22 04:38:00,
2013-04-22 00:43:00,49.6,29.6,30.36,SSE,161,4.6,4.6,46,0.00,CLR,,0.00,WeatherDisplay:10.37,2013-04-22 04:43:00,
2013-04-22 00:48:00,49.5,29.6,30.35,SSE,162,3.5,3.5,46,0.00,CLR,,0.00,WeatherDisplay:10.37,2013-04-22 04:48:00,
2013-04-22 00:53:00,49.5,29.0,30.35,SSE,166,2.3,2.3,45,0.00,CLR,,0.00,WeatherDisplay:10.37,2013-04-22 04:53:00,
2013-04-22 00:58:00,49.4,29.5,30.35,South,187,7.0,7.0,46,0.00,CLR,,0.00,WeatherDisplay:10.37,2013-04-22 04:58:00,
2013-04-22 01:03:00,49.3,28.8,30.35,SSW,212,4.0,4.0,45,0.00,CLR,,0.00,WeatherDisplay:10.37,2013-04-22 05:03:00,
2013-04-22 01:08:00,49.2,28.7,30.35,South,176,3.5,3.5,45,0.00,CLR,,0.00,WeatherDisplay:10.37,2013-04-22 05:08:00,
2013-04-22 01:13:00,49.2,28.7,30.35,NE,48,5.0,5.0,45,0.00,CLR,,0.00,WeatherDisplay:10.37,2013-04-22 05:13:00,
2013-04-22 01:18:00,49.2,28.7,30.35,ENE,70,1.1,1.1,45,0.00,CLR,,0.00,WeatherDisplay:10.37,2013-04-22 05:18:00,
2013-04-22 01:23:00,49.0,28.6,30.35,ENE,68,2.3,2.3,45,0.00,CLR,,0.00,WeatherDisplay:10.37,2013-04-22 05:23:00,
2013-04-22 01:28:00,49.0,28.6,30.35,ENE,73,2.3,2.3,45,0.00,CLR,,0.00,WeatherDisplay:10.37,2013-04-22 05:28:00,
2013-04-22 01:33:00,48.9,28.5,30.35,East,89,3.5,3.5,45,0.00,CLR,,0.00,WeatherDisplay:10.37,2013-04-22 05:33:00,
2013-04-22 01:38:00,48.7,28.3,30.35,ESE,121,4.0,4.0,45,0.00,CLR,,0.00,WeatherDisplay:10.37,2013-04-22 05:38:00,
2013-04-22 01:43:00,48.6,28.7,30.34,SE,133,2.3,2.3,46,0.00,CLR,,0.00,WeatherDisplay:10.37,2013-04-22 05:43:00,
2013-04-22 01:48:00,48.5,28.6,30.34,SE,133,2.3,2.3,46,0.00,CLR,,0.00,WeatherDisplay:10.37,2013-04-22 05:48:00,
2013-04-22 01:53:00,48.3,28.5,30.34,SE,133,2.0,2.0,46,0.00,CLR,,0.00,WeatherDisplay:10.37,2013-04-22 05:53:00,
2013-04-22 01:58:00,48.2,28.4,30.34,SSE,165,3.5,3.5,46,0.00,CLR,,0.00,WeatherDisplay:10.37,2013-04-22 05:58:00,
2013-04-22 02:03:00,48.1,28.8,30.34,SSE,165,2.3,2.3,47,0.00,CLR,,0.00,WeatherDisplay:10.37,2013-04-22 06:03:00,
2013-04-22 02:08:00,47.9,28.6,30.34,SSE,166,4.0,4.0,47,0.00,CLR,,0.00,WeatherDisplay:10.37,2013-04-22 06:08:00,
2013-04-22 02:13:00,47.8,28.5,30.34,SSE,154,2.3,2.3,47,0.00,CLR,,0.00,WeatherDisplay:10.37,2013-04-22 06:13:00,
2013-04-22 02:18:00,47.7,28.4,30.33,SSE,153,2.3,2.3,47,0.00,CLR,,0.00,WeatherDisplay:10.37,2013-04-22 06:18:00,
2013-04-22 02:23:00,47.6,28.3,30.33,SSE,156,2.0,2.0,47,0.00,CLR,,0.00,WeatherDisplay:10.37,2013-04-22 06:23:00,
2013-04-22 02:28:00,47.5,28.8,30.33,SSE,151,2.3,2.3,48,0.00,CLR,,0.00,WeatherDisplay:10.37,2013-04-22 06:28:00,
2013-04-22 02:33:00,47.4,28.7,30.33,SSE,151,4.0,4.0,48,0.00,CLR,,0.00,WeatherDisplay:10.37,2013-04-22 06:33:00,
2013-04-22 02:38:00,47.3,28.6,30.33,SSE,152,2.3,2.3,48,0.00,CLR,,0.00,WeatherDisplay:10.37,2013-04-22 06:38:00,
2013-04-22 02:43:00,47.2,28.5,30.33,SSE,152,1.1,1.1,48,0.00,CLR,,0.00,WeatherDisplay:10.37,2013-04-22 06:43:00,
2013-04-22 02:48:00,47.1,28.4,30.33,SSE,148,1.1,1.1,48,0.00,CLR,,0.00,WeatherDisplay:10.37,2013-04-22 06:48:00,
2013-04-22 02:53:00,47.0,28.3,30.32,SSE,149,4.0,4.0,48,0.00,CLR,,0.00,WeatherDisplay:10.37,2013-04-22 06:53:00,
2013-04-22 02:58:00,46.7,28.5,30.32,SSE,148,4.0,4.0,49,0.00,CLR,,0.00,WeatherDisplay:10.37,2013-04-22 06:58:00,
2013-04-22 03:03:00,46.7,28.5,30.32,SSE,148,1.1,1.1,49,0.00,CLR,,0.00,WeatherDisplay:10.37,2013-04-22 07:03:00,
2013-04-22 03:08:00,46.6,28.4,30.32,SSE,147,5.0,5.0,49,0.00,CLR,,0.00,WeatherDisplay:10.37,2013-04-22 07:08:00,
2013-04-22 03:13:00,46.6,28.4,30.32,SE,146,2.3,2.3,49,0.00,CLR,,0.00,WeatherDisplay:10.37,2013-04-22 07:13:00,
2013-04-22 03:18:00,46.5,28.3,30.32,SSE,147,1.1,0.0,49,0.00,CLR,,0.00,WeatherDisplay:10.37,2013-04-22 07:18:00,
2013-04-22 03:23:00,46.3,28.2,30.32,SE,145,1.1,0.0,49,0.00,CLR,,0.00,WeatherDisplay:10.37,2013-04-22 07:23:00,
2013-04-22 03:28:00,46.3,27.7,30.31,SE,146,1.1,1.1,48,0.00,CLR,,0.00,WeatherDisplay:10.37,2013-04-22 07:28:00,
2013-04-22 03:33:00,46.3,27.7,30.31,SE,146,1.0,0.0,48,0.00,CLR,,0.00,WeatherDisplay:10.37,2013-04-22 07:33:00,
2013-04-22 03:38:00,46.2,27.6,30.31,SSE,147,2.3,2.3,48,0.00,CLR,,0.00,WeatherDisplay:10.37,2013-04-22 07:38:00,
2013-04-22 03:43:00,46.3,27.7,30.31,SSE,147,1.1,1.1,48,0.00,CLR,,0.00,WeatherDisplay:10.37,2013-04-22 07:43:00,
2013-04-22 03:48:00,46.2,27.6,30.31,SSE,147,1.0,1.0,48,0.00,CLR,,0.00,WeatherDisplay:10.37,2013-04-22 07:48:00,
2013-04-22 03:53:00,46.1,27.5,30.31,SSE,147,2.3,2.3,48,0.00,CLR,,0.00,WeatherDisplay:10.37,2013-04-22 07:53:00,
2013-04-22 03:58:00,46.1,27.5,30.31,SSE,148,2.0,2.0,48,0.00,CLR,,0.00,WeatherDisplay:10.37,2013-04-22 07:58:00,
2013-04-22 04:03:00,46.2,27.1,30.31,SSE,147,1.1,1.1,47,0.00,CLR,,0.00,WeatherDisplay:10.37,2013-04-22 08:03:00,
2013-04-22 04:08:00,46.2,27.1,30.31,SSE,147,2.3,2.3,47,0.00,CLR,,0.00,WeatherDisplay:10.37,2013-04-22 08:08:00,
2013-04-22 04:13:00,46.1,27.5,30.31,SSE,147,1.1,1.1,48,0.00,CLR,,0.00,WeatherDisplay:10.37,2013-04-22 08:13:00,
2013-04-22 04:18:00,46.0,27.4,30.31,SE,145,4.0,4.0,48,0.00,CLR,,0.00,WeatherDisplay:10.37,2013-04-22 08:18:00,
2013-04-22 04:23:00,45.8,27.2,30.31,SE,144,1.0,0.0,48,0.00,CLR,,0.00,WeatherDisplay:10.37,2013-04-22 08:23:00,
2013-04-22 04:28:00,45.7,27.1,30.31,ENE,61,7.0,7.0,48,0.00,CLR,,0.00,WeatherDisplay:10.37,2013-04-22 08:28:00,
2013-04-22 04:33:00,45.6,27.0,30.31,ENE,62,1.1,1.1,48,0.00,CLR,,0.00,WeatherDisplay:10.37,2013-04-22 08:33:00,
2013-04-22 04:38:00,45.5,26.9,30.31,ESE,121,1.1,1.1,48,0.00,CLR,,0.00,WeatherDisplay:10.37,2013-04-22 08:38:00,
2013-04-22 04:43:00,45.4,26.8,30.31,ESE,123,2.3,2.3,48,0.00,CLR,,0.00,WeatherDisplay:10.37,2013-04-22 08:43:00,
2013-04-22 04:48:00,45.4,26.8,30.31,SE,130,5.0,5.0,48,0.00,CLR,,0.00,WeatherDisplay:10.37,2013-04-22 08:48:00,
2013-04-22 04:53:00,45.3,27.2,30.31,SE,130,2.0,2.0,49,0.00,CLR,,0.00,WeatherDisplay:10.37,2013-04-22 08:53:00,
2013-04-22 04:58:00,45.2,27.2,30.31,SE,129,0.0,0.0,49,0.00,CLR,,0.00,WeatherDisplay:10.37,2013-04-22 08:58:00,
2013-04-22 05:03:00,45.1,27.1,30.31,SE,132,5.0,5.0,49,0.00,CLR,,0.00,WeatherDisplay:10.37,2013-04-22 09:03:00,
2013-04-22 05:08:00,45.0,27.0,30.31,SE,139,2.3,0.0,49,0.00,CLR,,0.00,WeatherDisplay:10.37,2013-04-22 09:08:00,
2013-04-22 05:13:00,44.8,27.3,30.31,SE,139,0.0,0.0,50,0.00,CLR,,0.00,WeatherDisplay:10.37,2013-04-22 09:13:00,
2013-04-22 05:18:00,44.6,27.1,30.31,SE,139,1.1,1.1,50,0.00,CLR,,0.00,WeatherDisplay:10.37,2013-04-22 09:18:00,
2013-04-22 05:23:00,44.3,26.8,30.31,SE,139,0.0,0.0,50,0.00,CLR,,0.00,WeatherDisplay:10.37,2013-04-22 09:23:00,
2013-04-22 05:28:00,44.1,26.6,30.31,SE,139,0.0,0.0,50,0.00,CLR,,0.00,WeatherDisplay:10.37,2013-04-22 09:28:00,
2013-04-22 05:33:00,43.9,26.9,30.31,SE,139,2.0,2.0,51,0.00,CLR,,0.00,WeatherDisplay:10.37,2013-04-22 09:33:00,
2013-04-22 05:38:00,43.7,26.7,30.31,SE,139,0.0,0.0,51,0.00,CLR,,0.00,WeatherDisplay:10.37,2013-04-22 09:38:00,
2013-04-22 05:43:00,43.5,27.0,30.31,SE,139,0.0,0.0,52,0.00,CLR,,0.00,WeatherDisplay:10.37,2013-04-22 09:43:00,
2013-04-22 05:48:00,43.3,26.8,30.31,SE,139,0.0,0.0,52,0.00,CLR,,0.00,WeatherDisplay:10.37,2013-04-22 09:48:00,
2013-04-22 05:53:00,43.2,27.2,30.31,SE,139,2.3,2.3,53,0.00,CLR,,0.00,WeatherDisplay:10.37,2013-04-22 09:53:00,
2013-04-22 05:58:00,43.1,27.1,30.31,SE,139,0.0,0.0,53,0.00,CLR,,0.00,WeatherDisplay:10.37,2013-04-22 09:58:00,
2013-04-22 06:03:00,43.0,27.0,30.31,SE,139,0.0,0.0,53,0.00,CLR,,0.00,WeatherDisplay:10.37,2013-04-22 10:03:00,
2013-04-22 06:08:00,42.9,26.9,30.31,SE,139,0.0,0.0,53,0.00,CLR,,0.00,WeatherDisplay:10.37,2013-04-22 10:08:00,
2013-04-22 06:13:00,42.7,27.2,30.31,SE,139,1.1,1.1,54,0.00,CLR,,0.00,WeatherDisplay:10.37,2013-04-22 10:13:00,
2013-04-22 06:18:00,42.6,27.1,30.31,SE,139,0.0,0.0,54,0.00,CLR,,0.00,WeatherDisplay:10.37,2013-04-22 10:18:00,
2013-04-22 06:23:00,42.5,27.0,30.31,SE,139,0.0,0.0,54,0.00,CLR,,0.00,WeatherDisplay:10.37,2013-04-22 10:23:00,
2013-04-22 06:28:00,42.3,27.3,30.31,SE,139,0.0,0.0,55,0.00,CLR,,0.00,WeatherDisplay:10.37,2013-04-22 10:28:00,
2013-04-22 06:33:00,42.3,27.3,30.31,SE,139,3.5,3.5,55,0.00,CLR,,0.00,WeatherDisplay:10.37,2013-04-22 10:33:00,
2013-04-22 06:38:00,42.3,27.3,30.31,SE,139,1.1,1.1,55,0.00,CLR,,0.00,WeatherDisplay:10.37,2013-04-22 10:38:00,
2013-04-22 06:43:00,42.4,27.4,30.31,SE,139,1.1,0.0,55,0.00,CLR,,0.00,WeatherDisplay:10.37,2013-04-22 10:43:00,
2013-04-22 06:48:00,42.5,27.5,30.31,SE,139,2.3,2.3,55,0.00,CLR,,0.00,WeatherDisplay:10.37,2013-04-22 10:48:00,
2013-04-22 06:53:00,42.6,27.5,30.32,SE,139,0.0,0.0,55,0.00,CLR,,0.00,WeatherDisplay:10.37,2013-04-22 10:53:00,
2013-04-22 06:58:00,42.7,27.6,30.32,SE,139,0.0,0.0,55,0.00,CLR,,0.00,WeatherDisplay:10.37,2013-04-22 10:58:00,
2013-04-22 07:03:00,42.7,27.6,30.32,SE,139,1.1,1.1,55,0.00,CLR,,0.00,WeatherDisplay:10.37,2013-04-22 11:03:00,
2013-04-22 07:08:00,42.7,28.1,30.32,SE,139,0.0,0.0,56,0.00,CLR,,0.00,WeatherDisplay:10.37,2013-04-22 11:08:00,
2013-04-22 07:13:00,42.7,28.1,30.32,SE,139,2.0,2.0,56,0.00,CLR,,0.00,WeatherDisplay:10.37,2013-04-22 11:13:00,
2013-04-22 07:18:00,42.8,28.2,30.32,SE,140,2.3,2.3,56,0.00,CLR,,0.00,WeatherDisplay:10.37,2013-04-22 11:18:00,
2013-04-22 07:23:00,43.0,28.4,30.32,SE,141,5.0,5.0,56,0.00,CLR,,0.00,WeatherDisplay:10.37,2013-04-22 11:23:00,
2013-04-22 07:29:00,43.3,28.6,30.32,SE,141,2.3,2.3,56,0.00,CLR,,0.00,WeatherDisplay:10.37,2013-04-22 11:29:00,
2013-04-22 07:34:00,43.6,28.9,30.32,SE,142,4.0,4.0,56,0.00,CLR,,0.00,WeatherDisplay:10.37,2013-04-22 11:34:00,
2013-04-22 07:39:00,43.9,29.2,30.32,SSE,151,2.3,2.3,56,0.00,CLR,,0.00,WeatherDisplay:10.37,2013-04-22 11:39:00,
2013-04-22 07:44:00,44.2,29.5,30.32,SSE,157,4.0,4.0,56,0.00,CLR,,0.00,WeatherDisplay:10.37,2013-04-22 11:44:00,
2013-04-22 07:49:00,44.5,29.3,30.32,SSE,156,2.3,2.3,55,0.00,CLR,,0.00,WeatherDisplay:10.37,2013-04-22 11:49:00,
2013-04-22 07:54:00,45.0,29.8,30.32,South,170,4.0,4.0,55,0.00,CLR,,0.00,WeatherDisplay:10.37,2013-04-22 11:54:00,
2013-04-22 07:59:00,45.5,30.3,30.32,South,170,5.0,5.0,55,0.00,CLR,,0.00,WeatherDisplay:10.37,2013-04-22 11:59:00,
2013-04-22 08:04:00,46.0,30.7,30.32,South,175,3.5,3.5,55,0.00,CLR,,0.00,WeatherDisplay:10.37,2013-04-22 12:04:00,
2013-04-22 08:09:00,46.4,31.1,30.33,South,184,6.0,6.0,55,0.00,CLR,,0.00,WeatherDisplay:10.37,2013-04-22 12:09:00,
2013-04-22 08:14:00,46.8,31.0,30.33,South,183,6.0,6.0,54,0.00,CLR,,0.00,WeatherDisplay:10.37,2013-04-22 12:14:00,
2013-04-22 08:19:00,47.3,31.9,30.33,South,174,2.3,2.3,55,0.00,CLR,,0.00,WeatherDisplay:10.37,2013-04-22 12:19:00,
2013-04-22 08:24:00,47.6,31.8,30.33,SSE,167,6.0,6.0,54,0.00,CLR,,0.00,WeatherDisplay:10.37,2013-04-22 12:24:00,
2013-04-22 08:29:00,48.0,32.6,30.33,South,170,4.0,4.0,55,0.00,CLR,,0.00,WeatherDisplay:10.37,2013-04-22 12:29:00,
2013-04-22 08:34:00,48.7,32.8,30.33,South,187,2.3,2.3,54,0.00,CLR,,0.00,WeatherDisplay:10.37,2013-04-22 12:34:00,
2013-04-22 08:39:00,49.1,33.6,30.33,SSW,195,5.8,5.8,55,0.00,CLR,,0.00,WeatherDisplay:10.37,2013-04-22 12:39:00,
2013-04-22 08:44:00,49.6,33.6,30.33,South,187,6.0,6.0,54,0.00,CLR,,0.00,WeatherDisplay:10.37,2013-04-22 12:44:00,
2013-04-22 08:49:00,50.0,34.0,30.33,South,185,5.0,5.0,54,0.00,CLR,,0.00,WeatherDisplay:10.37,2013-04-22 12:49:00,
2013-04-22 08:54:00,50.5,34.5,30.33,SSW,205,3.5,3.5,54,0.00,CLR,,0.00,WeatherDisplay:10.37,2013-04-22 12:54:00,
2013-04-22 08:59:00,51.0,34.9,30.33,SSW,199,6.9,6.9,54,0.00,CLR,,0.00,WeatherDisplay:10.37,2013-04-22 12:59:00,
2013-04-22 09:04:00,51.4,35.3,30.33,South,183,2.3,2.3,54,0.00,CLR,,0.00,WeatherDisplay:10.37,2013-04-22 13:04:00,
2013-04-22 09:09:00,51.8,35.7,30.33,South,186,10.4,10.4,54,0.00,CLR,,0.00,WeatherDisplay:10.37,2013-04-22 13:09:00,
2013-04-22 09:14:00,52.3,36.1,30.33,SW,220,5.0,5.0,54,0.00,CLR,,0.00,WeatherDisplay:10.37,2013-04-22 13:14:00,
2013-04-22 09:19:00,52.7,36.5,30.33,South,188,7.0,7.0,54,0.00,CLR,,0.00,WeatherDisplay:10.37,2013-04-22 13:19:00,
2013-04-22 09:24:00,52.9,36.7,30.33,South,182,8.1,8.1,54,0.00,CLR,,0.00,WeatherDisplay:10.37,2013-04-22 13:24:00,
2013-04-22 09:29:00,53.3,37.1,30.33,SSW,193,9.2,9.2,54,0.00,CLR,,0.00,WeatherDisplay:10.37,2013-04-22 13:29:00,
2013-04-22 09:34:00,54.1,37.3,30.33,SSW,206,6.9,6.9,53,0.00,CLR,,0.00,WeatherDisplay:10.37,2013-04-22 13:34:00,
2013-04-22 09:39:00,54.5,37.7,30.33,SW,230,7.0,7.0,53,0.00,CLR,,0.00,WeatherDisplay:10.37,2013-04-22 13:39:00,
2013-04-22 09:44:00,54.7,37.9,30.33,SSW,211,5.0,5.0,53,0.00,CLR,,0.00,WeatherDisplay:10.37,2013-04-22 13:44:00,
2013-04-22 09:49:00,55.4,38.5,30.33,SW,215,4.0,4.0,53,0.00,CLR,,0.00,WeatherDisplay:10.37,2013-04-22 13:49:00,
2013-04-22 09:54:00,56.1,38.7,30.33,South,182,7.0,7.0,52,0.00,CLR,,0.00,WeatherDisplay:10.37,2013-04-22 13:54:00,
2013-04-22 09:59:00,56.8,39.8,30.33,SW,219,9.0,9.0,53,0.00,CLR,,0.00,WeatherDisplay:10.37,2013-04-22 13:59:00,
2013-04-22 10:04:00,57.2,39.7,30.33,SW,232,5.8,5.8,52,0.00,CLR,,0.00,WeatherDisplay:10.37,2013-04-22 14:04:00,
2013-04-22 10:09:00,57.6,39.6,30.33,SW,235,6.9,6.9,51,0.00,CLR,,0.00,WeatherDisplay:10.37,2013-04-22 14:09:00,
2013-04-22 10:14:00,57.9,39.9,30.33,SW,235,5.0,5.0,51,0.00,CLR,,0.00,WeatherDisplay:10.37,2013-04-22 14:14:00,
2013-04-22 10:19:00,58.2,40.1,30.33,WSW,237,6.0,6.0,51,0.00,CLR,,0.00,WeatherDisplay:10.37,2013-04-22 14:19:00,
2013-04-22 10:24:00,59.0,41.4,30.33,SW,227,6.0,6.0,52,0.00,CLR,,0.00,WeatherDisplay:10.37,2013-04-22 14:24:00,
2013-04-22 10:29:00,59.4,40.7,30.33,South,187,5.0,5.0,50,0.00,CLR,,0.00,WeatherDisplay:10.37,2013-04-22 14:29:00,
2013-04-22 10:34:00,59.4,40.2,30.33,SW,232,8.0,8.0,49,0.00,CLR,,0.00,WeatherDisplay:10.37,2013-04-22 14:34:00,
2013-04-22 10:39:00,59.4,40.7,30.33,West,267,10.4,10.4,50,0.00,CLR,,0.00,WeatherDisplay:10.37,2013-04-22 14:39:00,
2013-04-22 10:44:00,59.8,40.6,30.33,WSW,251,12.0,12.0,49,0.00,CLR,,0.00,WeatherDisplay:10.37,2013-04-22 14:44:00,
2013-04-22 10:49:00,60.1,41.4,30.33,SW,236,5.0,5.0,50,0.00,CLR,,0.00,WeatherDisplay:10.37,2013-04-22 14:49:00,
2013-04-22 10:54:00,60.2,41.0,30.33,WSW,243,8.1,8.1,49,0.00,CLR,,0.00,WeatherDisplay:10.37,2013-04-22 14:54:00,
2013-04-22 10:59:00,60.8,41.0,30.33,SSW,193,10.4,10.4,48,0.00,CLR,,0.00,WeatherDisplay:10.37,2013-04-22 14:59:00,
2013-04-22 11:04:00,61.5,41.6,30.33,SW,224,5.0,5.0,48,0.00,CLR,,0.00,WeatherDisplay:10.37,2013-04-22 15:04:00,
2013-04-22 11:09:00,60.7,40.9,30.33,WSW,239,5.0,5.0,48,0.00,CLR,,0.00,WeatherDisplay:10.37,2013-04-22 15:09:00,
2013-04-22 11:14:00,60.8,41.5,30.33,SW,228,7.0,7.0,49,0.00,CLR,,0.00,WeatherDisplay:10.37,2013-04-22 15:14:00,
2013-04-22 11:19:00,60.7,41.9,30.33,SSW,200,4.6,4.6,50,0.00,CLR,,0.00,WeatherDisplay:10.37,2013-04-22 15:19:00,
2013-04-22 11:24:00,61.5,42.7,30.33,SSW,205,4.0,4.0,50,0.00,CLR,,0.00,WeatherDisplay:10.37,2013-04-22 15:24:00,
2013-04-22 11:29:00,62.1,42.7,30.33,SW,232,6.0,6.0,49,0.00,CLR,,0.00,WeatherDisplay:10.37,2013-04-22 15:29:00,
2013-04-22 11:34:00,61.8,42.4,30.33,South,182,9.0,9.0,49,0.00,CLR,,0.00,WeatherDisplay:10.37,2013-04-22 15:34:00,
2013-04-22 11:39:00,62.3,41.8,30.33,West,266,13.0,13.0,47,0.00,CLR,,0.00,WeatherDisplay:10.37,2013-04-22 15:39:00,
2013-04-22 11:44:00,62.0,41.5,30.33,WSW,244,6.0,6.0,47,0.00,CLR,,0.00,WeatherDisplay:10.37,2013-04-22 15:44:00,
2013-04-22 11:49:00,62.3,42.3,30.33,WSW,243,9.2,9.2,48,0.00,CLR,,0.00,WeatherDisplay:10.37,2013-04-22 15:49:00,
2013-04-22 11:54:00,62.3,42.3,30.32,WSW,250,6.0,6.0,48,0.00,CLR,,0.00,WeatherDisplay:10.37,2013-04-22 15:54:00,
2013-04-22 11:59:00,63.1,43.1,30.32,WSW,245,9.2,9.2,48,0.00,CLR,,0.00,WeatherDisplay:10.37,2013-04-22 15:59:00,
2013-04-22 12:04:00,62.9,42.4,30.32,WSW,254,6.9,6.9,47,0.00,CLR,,0.00,WeatherDisplay:10.37,2013-04-22 16:04:00,
2013-04-22 12:09:00,63.4,43.4,30.32,WSW,255,4.0,4.0,48,0.00,CLR,,0.00,WeatherDisplay:10.37,2013-04-22 16:09:00,
2013-04-22 12:14:00,63.4,43.4,30.32,West,264,5.0,5.0,48,0.00,CLR,,0.00,WeatherDisplay:10.37,2013-04-22 16:14:00,
2013-04-22 12:19:00,63.4,43.9,30.31,NNW,348,6.0,6.0,49,0.00,CLR,,0.00,WeatherDisplay:10.37,2013-04-22 16:19:00,
2013-04-22 12:24:00,63.3,43.8,30.31,WSW,245,10.4,10.4,49,0.00,CLR,,0.00,WeatherDisplay:10.37,2013-04-22 16:24:00,
2013-04-22 12:29:00,62.9,43.4,30.31,WSW,251,8.1,8.1,49,0.00,CLR,,0.00,WeatherDisplay:10.37,2013-04-22 16:29:00,
2013-04-22 12:34:00,63.0,43.0,30.31,WSW,245,4.0,4.0,48,0.00,CLR,,0.00,WeatherDisplay:10.37,2013-04-22 16:34:00,
2013-04-22 12:39:00,63.5,44.0,30.31,West,278,5.0,5.0,49,0.00,CLR,,0.00,WeatherDisplay:10.37,2013-04-22 16:39:00,
2013-04-22 12:44:00,64.1,44.5,30.30,West,264,2.3,2.3,49,0.00,CLR,,0.00,WeatherDisplay:10.37,2013-04-22 16:44:00,
2013-04-22 12:49:00,64.8,44.6,30.30,West,270,4.0,4.0,48,0.00,CLR,,0.00,WeatherDisplay:10.37,2013-04-22 16:49:00,
2013-04-22 12:54:00,64.8,44.6,30.30,WNW,284,4.0,4.0,48,0.00,CLR,,0.00,WeatherDisplay:10.37,2013-04-22 16:54:00,
2013-04-22 12:59:00,64.7,44.0,30.30,WSW,256,8.0,8.0,47,0.00,CLR,,0.00,WeatherDisplay:10.37,2013-04-22 16:59:00,
2013-04-22 13:04:00,64.0,43.9,30.29,WSW,249,6.0,6.0,48,0.00,CLR,,0.00,WeatherDisplay:10.37,2013-04-22 17:04:00,
2013-04-22 13:09:00,64.1,44.0,30.29,WSW,239,4.6,4.6,48,0.00,CLR,,0.00,WeatherDisplay:10.37,2013-04-22 17:09:00,
2013-04-22 13:14:00,64.5,43.3,30.29,WSW,237,7.0,7.0,46,0.00,CLR,,0.00,WeatherDisplay:10.37,2013-04-22 17:14:00,
2013-04-22 13:19:00,64.1,42.9,30.29,SW,232,4.0,4.0,46,0.00,CLR,,0.00,WeatherDisplay:10.37,2013-04-22 17:19:00,
2013-04-22 13:24:00,64.9,44.2,30.28,West,266,7.0,7.0,47,0.00,CLR,,0.00,WeatherDisplay:10.37,2013-04-22 17:24:00,
2013-04-22 13:29:00,65.4,44.1,30.28,West,274,4.0,4.0,46,0.00,CLR,,0.00,WeatherDisplay:10.37,2013-04-22 17:29:00,
2013-04-22 13:34:00,65.5,43.0,30.28,WSW,257,5.8,5.8,44,0.00,CLR,,0.00,WeatherDisplay:10.37,2013-04-22 17:34:00,
2013-04-22 13:39:00,65.6,42.5,30.27,West,263,4.0,4.0,43,0.00,CLR,,0.00,WeatherDisplay:10.37,2013-04-22 17:39:00,
2013-04-22 13:44:00,66.2,43.0,30.27,WSW,253,7.0,7.0,43,0.00,CLR,,0.00,WeatherDisplay:10.37,2013-04-22 17:44:00,
2013-04-22 13:49:00,66.8,43.6,30.27,WSW,252,1.0,0.0,43,0.00,CLR,,0.00,WeatherDisplay:10.37,2013-04-22 17:49:00,
2013-04-22 13:54:00,66.9,43.0,30.27,WSW,251,4.6,4.6,42,0.00,CLR,,0.00,WeatherDisplay:10.37,2013-04-22 17:54:00,
2013-04-22 13:59:00,67.0,43.1,30.27,WSW,251,2.0,2.0,42,0.00,CLR,,0.00,WeatherDisplay:10.37,2013-04-22 17:59:00,
2013-04-22 14:04:00,67.2,45.7,30.26,WSW,251,0.0,0.0,46,0.00,CLR,,0.00,WeatherDisplay:10.37,2013-04-22 18:04:00,
2013-04-22 14:09:00,67.8,42.6,30.26,WSW,250,5.0,5.0,40,0.00,CLR,,0.00,WeatherDisplay:10.37,2013-04-22 18:09:00,
2013-04-22 14:14:00,67.8,42.6,30.26,WSW,249,5.8,5.8,40,0.00,CLR,,0.00,WeatherDisplay:10.37,2013-04-22 18:14:00,
2013-04-22 14:19:00,67.1,41.3,30.26,WSW,246,6.9,6.9,39,0.00,CLR,,0.00,WeatherDisplay:10.37,2013-04-22 18:19:00,
2013-04-22 14:24:00,66.3,41.9,30.25,NNW,328,3.5,3.5,41,0.00,CLR,,0.00,WeatherDisplay:10.37,2013-04-22 18:24:00,
2013-04-22 14:29:00,67.0,41.9,30.25,SW,218,5.8,5.8,40,0.00,CLR,,0.00,WeatherDisplay:10.37,2013-04-22 18:29:00,
2013-04-22 14:34:00,67.8,39.9,30.25,WSW,239,9.2,9.2,36,0.00,CLR,,0.00,WeatherDisplay:10.37,2013-04-22 18:34:00,
2013-04-22 14:39:00,67.5,40.3,30.25,WSW,239,4.0,4.0,37,0.00,CLR,,0.00,WeatherDisplay:10.37,2013-04-22 18:39:00,
2013-04-22 14:44:00,67.8,39.9,30.24,WSW,239,5.8,5.8,36,0.00,CLR,,0.00,WeatherDisplay:10.37,2013-04-22 18:44:00,
2013-04-22 14:49:00,68.1,41.5,30.24,SSW,213,1.1,0.0,38,0.00,CLR,,0.00,WeatherDisplay:10.37,2013-04-22 18:49:00,
2013-04-22 14:54:00,67.6,40.4,30.24,SSW,207,3.5,3.5,37,0.00,CLR,,0.00,WeatherDisplay:10.37,2013-04-22 18:54:00,
2013-04-22 14:59:00,67.8,41.3,30.23,SSW,208,1.1,1.1,38,0.00,CLR,,0.00,WeatherDisplay:10.37,2013-04-22 18:59:00,
2013-04-22 15:04:00,68.7,41.4,30.23,SSW,208,3.5,3.5,37,0.00,CLR,,0.00,WeatherDisplay:10.37,2013-04-22 19:04:00,
2013-04-22 15:09:00,69.2,41.1,30.23,WNW,286,1.1,1.1,36,0.00,CLR,,0.00,WeatherDisplay:10.37,2013-04-22 19:09:00,
2013-04-22 15:14:00,70.2,42.0,30.23,SW,224,6.0,6.0,36,0.00,CLR,,0.00,WeatherDisplay:10.37,2013-04-22 19:14:00,
2013-04-22 15:19:00,70.1,41.9,30.23,SW,226,3.5,3.5,36,0.00,CLR,,0.00,WeatherDisplay:10.37,2013-04-22 19:19:00,
2013-04-22 15:24:00,70.1,41.2,30.23,SW,230,8.1,8.1,35,0.00,CLR,,0.00,WeatherDisplay:10.37,2013-04-22 19:24:00,
2013-04-22 15:29:00,69.0,40.9,30.23,SW,228,3.5,3.5,36,0.00,CLR,,0.00,WeatherDisplay:10.37,2013-04-22 19:29:00,
2013-04-22 15:34:00,68.2,42.3,30.22,SW,228,5.0,5.0,39,0.00,CLR,,0.00,WeatherDisplay:10.37,2013-04-22 19:34:00,
2013-04-22 15:39:00,68.5,41.2,30.22,SW,224,7.0,7.0,37,0.00,CLR,,0.00,WeatherDisplay:10.37,2013-04-22 19:39:00,
2013-04-22 15:44:00,68.1,40.8,30.22,SW,226,3.5,3.5,37,0.00,CLR,,0.00,WeatherDisplay:10.37,2013-04-22 19:44:00,
2013-04-22 15:49:00,67.6,40.4,30.22,SW,226,6.0,6.0,37,0.00,CLR,,0.00,WeatherDisplay:10.37,2013-04-22 19:49:00,
2013-04-22 15:54:00,67.5,41.7,30.21,SW,226,3.5,3.5,39,0.00,CLR,,0.00,WeatherDisplay:10.37,2013-04-22 19:54:00,
2013-04-22 15:59:00,67.7,41.2,30.21,SW,226,0.0,0.0,38,0.00,CLR,,0.00,WeatherDisplay:10.37,2013-04-22 19:59:00,
2013-04-22 16:04:00,68.1,42.9,30.21,SW,226,4.0,4.0,40,0.00,BKN,,0.00,WeatherDisplay:10.37,2013-04-22 20:04:00,
2013-04-22 16:09:00,68.8,42.1,30.21,SW,226,6.0,6.0,38,0.00,BKN,,0.00,WeatherDisplay:10.37,2013-04-22 20:09:00,
2013-04-22 16:14:00,69.3,42.6,30.20,SSW,203,5.0,5.0,38,0.00,BKN,,0.00,WeatherDisplay:10.37,2013-04-22 20:14:00,
2013-04-22 16:19:00,70.0,42.5,30.20,SSW,209,4.0,4.0,37,0.00,BKN,,0.00,WeatherDisplay:10.37,2013-04-22 20:19:00,
2013-04-22 16:24:00,69.7,41.5,30.20,SW,225,4.0,4.0,36,0.00,BKN,,0.00,WeatherDisplay:10.37,2013-04-22 20:24:00,
2013-04-22 16:29:00,69.5,42.1,30.20,SW,223,3.5,3.5,37,0.00,BKN,,0.00,WeatherDisplay:10.37,2013-04-22 20:29:00,
2013-04-22 16:34:00,69.7,41.5,30.20,SSW,193,3.5,3.5,36,0.00,BKN,,0.00,WeatherDisplay:10.37,2013-04-22 20:34:00,
2013-04-22 16:39:00,70.7,41.7,30.19,SW,232,7.0,7.0,35,0.00,BKN,,0.00,WeatherDisplay:10.37,2013-04-22 20:39:00,
2013-04-22 16:44:00,69.8,41.6,30.19,SW,230,3.5,3.5,36,0.00,BKN,,0.00,WeatherDisplay:10.37,2013-04-22 20:44:00,
2013-04-22 16:49:00,71.0,42.7,30.19,SW,229,1.1,1.1,36,0.00,BKN,,0.00,WeatherDisplay:10.37,2013-04-22 20:49:00,
2013-04-22 16:54:00,72.1,42.9,30.19,SW,216,2.0,2.0,35,0.00,BKN,,0.00,WeatherDisplay:10.37,2013-04-22 20:54:00,
2013-04-22 16:59:00,72.5,43.3,30.19,SW,215,2.3,2.3,35,0.00,BKN,,0.00,WeatherDisplay:10.37,2013-04-22 20:59:00,
2013-04-22 17:04:00,71.5,40.9,30.19,SW,228,7.0,7.0,33,0.00,BKN,,0.00,WeatherDisplay:10.37,2013-04-22 21:04:00,
2013-04-22 17:09:00,69.5,41.4,30.19,SW,228,3.5,3.5,36,0.00,BKN,,0.00,WeatherDisplay:10.37,2013-04-22 21:09:00,
2013-04-22 17:14:00,68.8,40.0,30.18,SW,229,3.5,3.5,35,0.00,BKN,,0.00,WeatherDisplay:10.37,2013-04-22 21:14:00,
2013-04-22 17:19:00,68.9,40.8,30.18,SW,229,2.3,2.3,36,0.00,BKN,,0.00,WeatherDisplay:10.37,2013-04-22 21:19:00,
2013-04-22 17:24:00,69.4,41.3,30.18,SW,231,5.0,5.0,36,0.00,BKN,,0.00,WeatherDisplay:10.37,2013-04-22 21:24:00,
2013-04-22 17:29:00,70.2,42.7,30.18,WSW,238,2.0,2.0,37,0.00,BKN,,0.00,WeatherDisplay:10.37,2013-04-22 21:29:00,
2013-04-22 17:34:00,71.1,41.3,30.18,SSW,201,3.5,3.5,34,0.00,BKN,,0.00,WeatherDisplay:10.37,2013-04-22 21:34:00,
2013-04-22 17:39:00,72.4,42.4,30.18,South,180,2.3,2.3,34,0.00,BKN,,0.00,WeatherDisplay:10.37,2013-04-22 21:39:00,
2013-04-22 17:44:00,73.4,42.5,30.18,South,180,0.0,0.0,33,0.00,BKN,,0.00,WeatherDisplay:10.37,2013-04-22 21:44:00,
2013-04-22 17:49:00,73.5,41.0,30.18,South,185,1.0,0.0,31,0.00,BKN,,0.00,WeatherDisplay:10.37,2013-04-22 21:49:00,
2013-04-22 17:54:00,73.7,41.2,30.18,South,185,1.1,0.0,31,0.00,BKN,,0.00,WeatherDisplay:10.37,2013-04-22 21:54:00,
2013-04-22 17:59:00,73.5,41.8,30.18,South,183,4.0,4.0,32,0.00,BKN,,0.00,WeatherDisplay:10.37,2013-04-22 21:59:00,
2013-04-22 18:04:00,73.1,41.5,30.17,South,179,4.0,4.0,32,0.00,BKN,,0.00,WeatherDisplay:10.37,2013-04-22 22:04:00,
2013-04-22 18:09:00,72.6,40.2,30.17,South,180,2.3,2.3,31,0.00,BKN,,0.00,WeatherDisplay:10.37,2013-04-22 22:09:00,
2013-04-22 18:14:00,71.2,40.6,30.18,South,181,5.0,5.0,33,0.00,BKN,,0.00,WeatherDisplay:10.37,2013-04-22 22:14:00,
2013-04-22 18:19:00,70.4,40.7,30.18,South,189,3.0,3.0,34,0.00,BKN,,0.00,WeatherDisplay:10.37,2013-04-22 22:19:00,
2013-04-22 18:24:00,70.8,41.0,30.18,South,189,1.0,1.0,34,0.00,BKN,,0.00,WeatherDisplay:10.37,2013-04-22 22:24:00,
2013-04-22 18:29:00,71.1,40.5,30.17,South,189,3.5,3.5,33,0.00,BKN,,0.00,WeatherDisplay:10.37,2013-04-22 22:29:00,
2013-04-22 18:34:00,71.0,40.4,30.17,South,189,1.1,1.1,33,0.00,BKN,,0.00,WeatherDisplay:10.37,2013-04-22 22:34:00,
2013-04-22 18:39:00,71.2,40.6,30.17,SSW,193,4.0,4.0,33,0.00,BKN,,0.00,WeatherDisplay:10.37,2013-04-22 22:39:00,
2013-04-22 18:44:00,70.1,40.4,30.17,SW,220,5.0,5.0,34,0.00,BKN,,0.00,WeatherDisplay:10.37,2013-04-22 22:44:00,
2013-04-22 18:49:00,69.5,39.9,30.17,SW,224,6.0,6.0,34,0.00,BKN,,0.00,WeatherDisplay:10.37,2013-04-22 22:49:00,
2013-04-22 18:54:00,68.8,40.0,30.17,SW,224,2.0,2.0,35,0.00,BKN,,0.00,WeatherDisplay:10.37,2013-04-22 22:54:00,
2013-04-22 18:59:00,69.2,40.4,30.17,SW,224,1.1,1.1,35,0.00,BKN,,0.00,WeatherDisplay:10.37,2013-04-22 22:59:00,
2013-04-22 19:04:00,69.7,40.1,30.17,SW,224,2.3,2.3,34,0.00,CLR,,0.00,WeatherDisplay:10.37,2013-04-22 23:04:00,
2013-04-22 19:09:00,69.8,40.2,30.17,SW,224,2.0,2.0,34,0.00,CLR,,0.00,WeatherDisplay:10.37,2013-04-22 23:09:00,
2013-04-22 19:14:00,69.5,39.9,30.17,SW,224,1.0,0.0,34,0.00,CLR,,0.00,WeatherDisplay:10.37,2013-04-22 23:14:00,
2013-04-22 19:19:00,69.5,39.9,30.16,SW,224,0.0,0.0,34,0.00,CLR,,0.00,WeatherDisplay:10.37,2013-04-22 23:19:00,
2013-04-22 19:24:00,69.7,40.1,30.16,SW,224,1.1,0.0,34,0.00,CLR,,0.00,WeatherDisplay:10.37,2013-04-22 23:24:00,
2013-04-22 19:29:00,69.4,40.5,30.16,SW,224,2.0,2.0,35,0.00,CLR,,0.00,WeatherDisplay:10.37,2013-04-22 23:29:00,
2013-04-22 19:34:00,68.6,39.8,30.17,SW,224,1.1,0.0,35,0.00,CLR,,0.00,WeatherDisplay:10.37,2013-04-22 23:34:00,
2013-04-22 19:39:00,68.2,40.2,30.16,SW,224,1.1,1.1,36,0.00,CLR,,0.00,WeatherDisplay:10.37,2013-04-22 23:39:00,
2013-04-22 19:44:00,68.0,40.0,30.16,SW,224,0.0,0.0,36,0.00,CLR,,0.00,WeatherDisplay:10.37,2013-04-22 23:44:00,
2013-04-22 19:49:00,68.0,40.0,30.16,SW,224,0.0,0.0,36,0.00,CLR,,0.00,WeatherDisplay:10.37,2013-04-22 23:49:00,
2013-04-22 19:54:00,67.8,39.9,30.16,SW,224,0.0,0.0,36,0.00,CLR,,0.00,WeatherDisplay:10.37,2013-04-22 23:54:00,
2013-04-22 19:59:00,67.5,40.3,30.16,SW,224,0.0,0.0,37,0.00,CLR,,0.00,WeatherDisplay:10.37,2013-04-22 23:59:00,
2013-04-22 20:04:00,67.2,40.0,30.16,SW,224,0.0,0.0,37,0.00,CLR,,0.00,WeatherDisplay:10.37,2013-04-23 00:04:00,
2013-04-22 20:09:00,66.9,41.1,30.16,SW,224,0.0,0.0,39,0.00,CLR,,0.00,WeatherDisplay:10.37,2013-04-23 00:09:00,
2013-04-22 20:14:00,66.5,40.1,30.16,SW,224,0.0,0.0,38,0.00,CLR,,0.00,WeatherDisplay:10.37,2013-04-23 00:14:00,
2013-04-22 20:19:00,66.2,40.5,30.15,SW,224,0.0,0.0,39,0.00,CLR,,0.00,WeatherDisplay:10.37,2013-04-23 00:19:00,
2013-04-22 20:24:00,65.9,40.2,30.15,SW,224,0.0,0.0,39,0.00,CLR,,0.00,WeatherDisplay:10.37,2013-04-23 00:24:00,
2013-04-22 20:29:00,65.7,40.1,30.15,SW,224,0.0,0.0,39,0.00,CLR,,0.00,WeatherDisplay:10.37,2013-04-23 00:29:00,
2013-04-22 20:34:00,65.4,40.4,30.15,SW,224,0.0,0.0,40,0.00,CLR,,0.00,WeatherDisplay:10.37,2013-04-23 00:34:00,
2013-04-22 20:39:00,65.1,40.8,30.15,SW,224,0.0,0.0,41,0.00,CLR,,0.00,WeatherDisplay:10.37,2013-04-23 00:39:00,
2013-04-22 20:44:00,64.6,41.0,30.15,SW,224,0.0,0.0,42,0.00,CLR,,0.00,WeatherDisplay:10.37,2013-04-23 00:44:00,
2013-04-22 20:49:00,64.2,41.2,30.15,SW,224,1.1,1.1,43,0.00,CLR,,0.00,WeatherDisplay:10.37,2013-04-23 00:49:00,
2013-04-22 20:54:00,63.8,41.5,30.15,SW,224,1.1,1.1,44,0.00,CLR,,0.00,WeatherDisplay:10.37,2013-04-23 00:54:00,
2013-04-22 20:59:00,63.3,41.6,30.15,SW,224,1.0,1.0,45,0.00,CLR,,0.00,WeatherDisplay:10.37,2013-04-23 00:59:00,
2013-04-22 21:04:00,63.0,41.9,30.15,SW,224,0.0,0.0,46,0.00,CLR,,0.00,WeatherDisplay:10.37,2013-04-23 01:04:00,
2013-04-22 21:09:00,62.8,41.7,30.15,SW,224,1.1,1.1,46,0.00,CLR,,0.00,WeatherDisplay:10.37,2013-04-23 01:09:00,
2013-04-22 21:14:00,62.7,41.6,30.15,SW,224,1.1,0.0,46,0.00,CLR,,0.00,WeatherDisplay:10.37,2013-04-23 01:14:00,
2013-04-22 21:19:00,62.5,42.0,30.15,SW,224,0.0,0.0,47,0.00,CLR,,0.00,WeatherDisplay:10.37,2013-04-23 01:19:00,
2013-04-22 21:24:00,62.3,41.8,30.16,SW,224,0.0,0.0,47,0.00,CLR,,0.00,WeatherDisplay:10.37,2013-04-23 01:24:00,
2013-04-22 21:29:00,62.1,41.6,30.16,SW,224,0.0,0.0,47,0.00,CLR,,0.00,WeatherDisplay:10.37,2013-04-23 01:29:00,
2013-04-22 21:34:00,61.8,41.9,30.16,SW,224,0.0,0.0,48,0.00,CLR,,0.00,WeatherDisplay:10.37,2013-04-23 01:34:00,
2013-04-22 21:39:00,61.5,41.6,30.16,SW,224,0.0,0.0,48,0.00,CLR,,0.00,WeatherDisplay:10.37,2013-04-23 01:39:00,
2013-04-22 21:44:00,61.2,41.9,30.16,SW,224,0.0,0.0,49,0.00,CLR,,0.00,WeatherDisplay:10.37,2013-04-23 01:44:00,
2013-04-22 21:49:00,60.8,41.5,30.16,SW,224,0.0,0.0,49,0.00,CLR,,0.00,WeatherDisplay:10.37,2013-04-23 01:49:00,
2013-04-22 21:54:00,60.5,41.2,30.16,SW,224,0.0,0.0,49,0.00,CLR,,0.00,WeatherDisplay:10.37,2013-04-23 01:54:00,
2013-04-22 21:59:00,60.4,41.1,30.16,SW,224,0.0,0.0,49,0.00,CLR,,0.00,WeatherDisplay:10.37,2013-04-23 01:59:00,
2013-04-22 22:04:00,60.4,41.1,30.16,SW,224,0.0,0.0,49,0.00,CLR,,0.00,WeatherDisplay:10.37,2013-04-23 02:04:00,
2013-04-22 22:09:00,60.4,41.1,30.16,SW,224,0.0,0.0,49,0.00,CLR,,0.00,WeatherDisplay:10.37,2013-04-23 02:09:00,
2013-04-22 22:14:00,60.2,41.0,30.16,SW,224,0.0,0.0,49,0.00,CLR,,0.00,WeatherDisplay:10.37,2013-04-23 02:14:00,
2013-04-22 22:19:00,60.0,41.3,30.16,SW,224,0.0,0.0,50,0.00,CLR,,0.00,WeatherDisplay:10.37,2013-04-23 02:19:00,
2013-04-22 22:24:00,59.7,41.0,30.16,SW,224,0.0,0.0,50,0.00,CLR,,0.00,WeatherDisplay:10.37,2013-04-23 02:24:00,
2013-04-22 22:29:00,59.4,40.7,30.16,SW,224,0.0,0.0,50,0.00,CLR,,0.00,WeatherDisplay:10.37,2013-04-23 02:29:00,
2013-04-22 22:34:00,59.1,41.0,30.16,SW,224,0.0,0.0,51,0.00,CLR,,0.00,WeatherDisplay:10.37,2013-04-23 02:34:00,
2013-04-22 22:39:00,59.0,40.9,30.16,SW,224,0.0,0.0,51,0.00,CLR,,0.00,WeatherDisplay:10.37,2013-04-23 02:39:00,
2013-04-22 22:44:00,59.0,40.9,30.16,SW,224,0.0,0.0,51,0.00,CLR,,0.00,WeatherDisplay:10.37,2013-04-23 02:44:00,
2013-04-22 22:49:00,58.7,40.6,30.16,SW,224,0.0,0.0,51,0.00,CLR,,0.00,WeatherDisplay:10.37,2013-04-23 02:49:00,
2013-04-22 22:54:00,58.4,40.8,30.16,SW,224,0.0,0.0,52,0.00,CLR,,0.00,WeatherDisplay:10.37,2013-04-23 02:54:00,
2013-04-22 22:59:00,58.2,40.6,30.16,SW,224,0.0,0.0,52,0.00,CLR,,0.00,WeatherDisplay:10.37,2013-04-23 02:59:00,
2013-04-22 23:04:00,58.1,40.6,30.16,SW,224,0.0,0.0,52,0.00,CLR,,0.00,WeatherDisplay:10.37,2013-04-23 03:04:00,
2013-04-22 23:09:00,58.0,40.5,30.16,SW,224,0.0,0.0,52,0.00,CLR,,0.00,WeatherDisplay:10.37,2013-04-23 03:09:00,
2013-04-22 23:14:00,57.9,40.4,30.16,SW,224,0.0,0.0,52,0.00,CLR,,0.00,WeatherDisplay:10.37,2013-04-23 03:14:00,
2013-04-22 23:19:00,57.7,40.2,30.16,SW,224,0.0,0.0,52,0.00,CLR,,0.00,WeatherDisplay:10.37,2013-04-23 03:19:00,
2013-04-22 23:24:00,57.6,40.1,30.16,SW,224,0.0,0.0,52,0.00,CLR,,0.00,WeatherDisplay:10.37,2013-04-23 03:24:00,
2013-04-22 23:29:00,57.5,40.5,30.16,SW,224,0.0,0.0,53,0.00,CLR,,0.00,WeatherDisplay:10.37,2013-04-23 03:29:00,
2013-04-22 23:34:00,57.3,40.3,30.16,SW,224,0.0,0.0,53,0.00,CLR,,0.00,WeatherDisplay:10.37,2013-04-23 03:34:00,
2013-04-22 23:39:00,57.2,40.2,30.16,SW,224,0.0,0.0,53,0.00,CLR,,0.00,WeatherDisplay:10.37,2013-04-23 03:39:00,
2013-04-22 23:44:00,57.1,40.1,30.16,SW,224,0.0,0.0,53,0.00,CLR,,0.00,WeatherDisplay:10.37,2013-04-23 03:44:00,
2013-04-22 23:49:00,57.1,40.1,30.16,SW,224,0.0,0.0,53,0.00,CLR,,0.00,WeatherDisplay:10.37,2013-04-23 03:49:00,
2013-04-22 23:54:00,57.1,40.1,30.16,SW,224,0.0,0.0,53,0.00,CLR,,0.00,WeatherDisplay:10.37,2013-04-23 03:54:00,
2013-04-22 23:59:00,56.9,39.9,30.16,SW,224,0.0,0.0,53,0.00,CLR,,0.00,WeatherDisplay:10.37,2013-04-23 03:59:00,